createdAt,value
2017-05-07T00:00:03.485Z,0
2017-05-07T00:01:12.441Z,0
2017-05-07T00:02:21.400Z,0
2017-05-07T00:03:30.445Z,0
2017-05-07T00:04:39.407Z,0
2017-05-07T00:05:48.621Z,0
2017-05-07T00:06:57.912Z,0
2017-05-07T00:08:06.878Z,0
2017-05-07T00:09:15.840Z,0
2017-05-07T00:10:24.802Z,0
2017-05-07T00:11:34.008Z,0
2017-05-07T00:12:42.964Z,0
2017-05-07T00:13:51.924Z,0
2017-05-07T00:15:00.882Z,0
2017-05-07T00:16:09.838Z,0
2017-05-07T00:17:19.046Z,0
2017-05-07T00:18:28.003Z,0
2017-05-07T00:19:36.963Z,0
2017-05-07T00:20:45.924Z,0
2017-05-07T00:21:54.914Z,0
2017-05-07T00:23:04.122Z,0
2017-05-07T00:24:13.409Z,0
2017-05-07T00:25:22.367Z,0
2017-05-07T00:26:31.334Z,0
2017-05-07T00:27:40.296Z,0
2017-05-07T00:28:49.506Z,0
2017-05-07T00:29:58.561Z,0
2017-05-07T00:31:07.525Z,0
2017-05-07T00:32:16.487Z,0
2017-05-07T00:33:25.442Z,0
2017-05-07T00:34:34.648Z,0
2017-05-07T00:35:43.604Z,0
2017-05-07T00:36:52.568Z,0
2017-05-07T00:38:01.525Z,0
2017-05-07T00:39:10.482Z,0
2017-05-07T00:40:19.690Z,0
2017-05-07T00:41:28.733Z,0
2017-05-07T00:42:37.691Z,0
2017-05-07T00:43:46.656Z,0
2017-05-07T00:44:55.621Z,0
2017-05-07T00:46:05.149Z,0
2017-05-07T00:47:14.109Z,0
2017-05-07T00:48:23.071Z,0
2017-05-07T00:49:32.126Z,0
2017-05-07T00:50:41.120Z,0
2017-05-07T00:51:50.326Z,0
2017-05-07T00:52:59.643Z,0
2017-05-07T00:54:08.611Z,0
2017-05-07T00:55:17.571Z,0
2017-05-07T00:56:26.527Z,0
2017-05-07T00:57:35.823Z,0
2017-05-07T00:58:44.783Z,0
2017-05-07T00:59:53.736Z,0
2017-05-07T01:01:02.700Z,0
2017-05-07T01:02:11.660Z,0
2017-05-07T01:03:20.873Z,0
2017-05-07T01:04:29.835Z,0
2017-05-07T01:05:38.796Z,0
2017-05-07T01:06:47.754Z,0
2017-05-07T01:07:56.724Z,0
2017-05-07T01:09:05.932Z,0
2017-05-07T01:10:14.890Z,0
2017-05-07T01:11:23.843Z,0
2017-05-07T01:12:32.794Z,0
2017-05-07T01:13:41.755Z,0
2017-05-07T01:14:51.048Z,0
2017-05-07T01:16:00.007Z,0
2017-05-07T01:17:09.051Z,0
2017-05-07T01:18:18.015Z,0
2017-05-07T01:19:26.980Z,0
2017-05-07T01:20:36.191Z,0
2017-05-07T01:21:45.155Z,0
2017-05-07T01:22:54.148Z,0
2017-05-07T01:24:03.105Z,0
2017-05-07T01:25:12.068Z,0
2017-05-07T01:26:21.280Z,0
2017-05-07T01:27:30.242Z,0
2017-05-07T01:28:39.201Z,0
2017-05-07T01:29:48.156Z,0
2017-05-07T01:30:57.114Z,0
2017-05-07T01:32:06.375Z,0
2017-05-07T01:33:15.333Z,0
2017-05-07T01:34:24.293Z,0
2017-05-07T01:35:33.258Z,0
2017-05-07T01:36:42.216Z,0
2017-05-07T01:37:51.431Z,0
2017-05-07T01:39:00.494Z,0
2017-05-07T01:40:09.452Z,0
2017-05-07T01:41:18.415Z,0
2017-05-07T01:42:27.377Z,0
2017-05-07T01:43:36.585Z,0
2017-05-07T01:44:45.552Z,0
2017-05-07T01:45:56.471Z,0
2017-05-07T01:47:05.757Z,0
2017-05-07T01:48:16.071Z,0
2017-05-07T01:49:26.016Z,0
2017-05-07T01:50:34.977Z,0
2017-05-07T01:51:45.137Z,0
2017-05-07T01:52:54.797Z,0
2017-05-07T01:54:04.363Z,0
2017-05-07T01:55:14.341Z,0
2017-05-07T01:56:23.308Z,0
2017-05-07T01:57:32.995Z,0
2017-05-07T01:58:41.960Z,0
2017-05-07T01:59:51.861Z,0
2017-05-07T02:01:01.899Z,0
2017-05-07T02:02:10.944Z,0
2017-05-07T02:03:22.733Z,0
2017-05-07T02:04:32.766Z,0
2017-05-07T02:05:42.584Z,0
2017-05-07T02:06:53.082Z,0
2017-05-07T02:08:02.367Z,0
2017-05-07T02:09:12.498Z,0
2017-05-07T02:10:23.210Z,0
2017-05-07T02:11:34.381Z,0
2017-05-07T02:12:45.839Z,0
2017-05-07T02:13:56.047Z,0
2017-05-07T02:15:05.194Z,0
2017-05-07T02:16:15.357Z,0
2017-05-07T02:17:25.910Z,0
2017-05-07T02:18:36.255Z,0
2017-05-07T02:19:46.242Z,0
2017-05-07T02:20:55.480Z,0
2017-05-07T02:22:05.466Z,0
2017-05-07T02:23:15.667Z,0
2017-05-07T02:24:26.250Z,0
2017-05-07T02:25:36.898Z,0
2017-05-07T02:26:46.979Z,0
2017-05-07T02:27:55.942Z,0
2017-05-07T02:29:05.984Z,0
2017-05-07T02:30:16.472Z,0
2017-05-07T02:31:26.962Z,0
2017-05-07T02:32:35.928Z,0
2017-05-07T02:33:45.755Z,0
2017-05-07T02:34:56.355Z,0
2017-05-07T02:36:07.012Z,0
2017-05-07T02:37:17.605Z,0
2017-05-07T02:38:27.859Z,0
2017-05-07T02:39:38.431Z,0
2017-05-07T02:40:49.315Z,0
2017-05-07T02:41:59.278Z,0
2017-05-07T02:43:09.555Z,0
2017-05-07T02:44:18.543Z,0
2017-05-07T02:45:28.735Z,0
2017-05-07T02:46:38.790Z,0
2017-05-07T02:47:49.083Z,0
2017-05-07T02:48:58.778Z,0
2017-05-07T02:50:10.557Z,0
2017-05-07T02:51:22.265Z,0
2017-05-07T02:52:31.236Z,0
2017-05-07T02:53:41.626Z,0
2017-05-07T02:54:50.579Z,0
2017-05-07T02:56:00.261Z,0
2017-05-07T02:57:09.224Z,0
2017-05-07T02:58:18.183Z,0
2017-05-07T02:59:27.434Z,0
2017-05-07T03:00:37.631Z,0
2017-05-07T03:01:47.135Z,0
2017-05-07T03:02:56.221Z,0
2017-05-07T03:04:05.181Z,0
2017-05-07T03:05:14.814Z,0
2017-05-07T03:06:23.770Z,0
2017-05-07T03:07:34.191Z,0
2017-05-07T03:08:44.423Z,0
2017-05-07T03:09:53.429Z,0
2017-05-07T03:11:03.668Z,0
2017-05-07T03:12:13.916Z,0
2017-05-07T03:13:23.161Z,0
2017-05-07T03:14:32.768Z,0
2017-05-07T03:15:42.509Z,0
2017-05-07T03:16:51.782Z,0
2017-05-07T03:18:01.728Z,0
2017-05-07T03:19:10.690Z,0
2017-05-07T03:20:20.606Z,0
2017-05-07T03:21:29.565Z,0
2017-05-07T03:22:41.531Z,0
2017-05-07T03:23:52.028Z,0
2017-05-07T03:25:02.489Z,0
2017-05-07T03:26:11.502Z,0
2017-05-07T03:27:21.262Z,0
2017-05-07T03:28:31.821Z,0
2017-05-07T03:29:41.918Z,0
2017-05-07T03:30:51.451Z,0
2017-05-07T03:32:01.448Z,0
2017-05-07T03:33:11.322Z,0
2017-05-07T03:34:22.542Z,0
2017-05-07T03:35:32.596Z,0
2017-05-07T03:36:42.953Z,0
2017-05-07T03:37:52.053Z,0
2017-05-07T03:39:02.339Z,0
2017-05-07T03:40:12.779Z,0
2017-05-07T03:41:22.358Z,0
2017-05-07T03:42:31.481Z,0
2017-05-07T03:43:41.425Z,0
2017-05-07T03:44:50.875Z,0
2017-05-07T03:46:00.091Z,0
2017-05-07T03:47:09.134Z,0
2017-05-07T03:48:18.184Z,0
2017-05-07T03:49:27.143Z,0
2017-05-07T03:50:36.093Z,0
2017-05-07T03:51:45.299Z,0
2017-05-07T03:52:54.262Z,0
2017-05-07T03:54:03.218Z,0
2017-05-07T03:55:12.175Z,0
2017-05-07T03:56:21.224Z,0
2017-05-07T03:57:30.524Z,0
2017-05-07T03:58:39.501Z,0
2017-05-07T03:59:48.488Z,0
2017-05-07T04:00:57.791Z,0
2017-05-07T04:02:06.743Z,0
2017-05-07T04:03:15.959Z,0
2017-05-07T04:04:24.925Z,0
2017-05-07T04:05:33.883Z,0
2017-05-07T04:06:42.843Z,0
2017-05-07T04:07:51.799Z,0
2017-05-07T04:09:01.059Z,0
2017-05-07T04:10:10.015Z,5
2017-05-07T04:11:18.970Z,5
2017-05-07T04:12:27.937Z,5
2017-05-07T04:13:36.981Z,5
2017-05-07T04:14:46.185Z,5
2017-05-07T04:15:55.142Z,5
2017-05-07T04:17:04.107Z,5
2017-05-07T04:18:13.196Z,5
2017-05-07T04:19:22.239Z,5
2017-05-07T04:20:31.455Z,5
2017-05-07T04:21:40.595Z,5
2017-05-07T04:22:49.872Z,5
2017-05-07T04:23:58.833Z,5
2017-05-07T04:25:07.790Z,5
2017-05-07T04:26:17.017Z,5
2017-05-07T04:27:25.971Z,5
2017-05-07T04:28:34.931Z,10
2017-05-07T04:29:43.883Z,10
2017-05-07T04:30:52.841Z,10
2017-05-07T04:32:02.136Z,10
2017-05-07T04:33:11.095Z,10
2017-05-07T04:34:20.051Z,10
2017-05-07T04:35:29.099Z,10
2017-05-07T04:36:38.059Z,10
2017-05-07T04:37:47.271Z,10
2017-05-07T04:38:56.239Z,10
2017-05-07T04:40:05.189Z,10
2017-05-07T04:41:14.234Z,10
2017-05-07T04:42:23.189Z,10
2017-05-07T04:43:47.262Z,10
2017-05-07T04:44:56.220Z,10
2017-05-07T04:46:05.178Z,10
2017-05-07T04:47:14.233Z,10
2017-05-07T04:48:23.187Z,10
2017-05-07T04:49:32.398Z,10
2017-05-07T04:50:41.385Z,10
2017-05-07T04:51:50.351Z,10
2017-05-07T04:52:59.312Z,10
2017-05-07T04:54:08.277Z,10
2017-05-07T04:55:17.479Z,15
2017-05-07T04:56:26.523Z,15
2017-05-07T04:57:35.480Z,15
2017-05-07T04:58:44.438Z,15
2017-05-07T04:59:53.396Z,15
2017-05-07T05:01:03.006Z,15
2017-05-07T05:02:12.461Z,15
2017-05-07T05:03:21.452Z,15
2017-05-07T05:04:30.410Z,15
2017-05-07T05:05:39.700Z,15
2017-05-07T05:06:48.907Z,15
2017-05-07T05:07:58.192Z,20
2017-05-07T05:09:07.150Z,20
2017-05-07T05:10:16.108Z,20
2017-05-07T05:11:27.450Z,25
2017-05-07T05:12:37.076Z,25
2017-05-07T05:13:47.132Z,25
2017-05-07T05:14:56.178Z,25
2017-05-07T05:16:05.744Z,30
2017-05-07T05:17:14.710Z,30
2017-05-07T05:18:24.976Z,35
2017-05-07T05:19:34.615Z,35
2017-05-07T05:20:45.340Z,35
2017-05-07T05:21:54.992Z,35
2017-05-07T05:23:04.780Z,35
2017-05-07T05:24:15.317Z,35
2017-05-07T05:25:25.715Z,40
2017-05-07T05:26:36.270Z,40
2017-05-07T05:27:46.218Z,40
2017-05-07T05:28:57.209Z,40
2017-05-07T05:30:07.320Z,35
2017-05-07T05:31:16.273Z,30
2017-05-07T05:32:26.034Z,25
2017-05-07T05:33:34.995Z,25
2017-05-07T05:34:44.900Z,25
2017-05-07T05:35:55.805Z,25
2017-05-07T05:37:05.943Z,25
2017-05-07T05:38:16.002Z,20
2017-05-07T05:39:24.956Z,20
2017-05-07T05:40:35.047Z,20
2017-05-07T05:41:45.567Z,25
2017-05-07T05:42:56.081Z,30
2017-05-07T05:44:05.123Z,30
2017-05-07T05:45:14.832Z,30
2017-05-07T05:46:23.793Z,40
2017-05-07T05:47:33.733Z,40
2017-05-07T05:48:43.083Z,40
2017-05-07T05:49:52.441Z,35
2017-05-07T05:51:01.723Z,35
2017-05-07T05:52:11.520Z,35
2017-05-07T05:53:21.631Z,30
2017-05-07T05:54:30.587Z,30
2017-05-07T05:55:40.660Z,30
2017-05-07T05:56:50.570Z,35
2017-05-07T05:57:59.536Z,35
2017-05-07T05:59:10.357Z,35
2017-05-07T06:00:20.634Z,35
2017-05-07T06:01:31.555Z,35
2017-05-07T06:02:41.262Z,30
2017-05-07T06:03:50.290Z,30
2017-05-07T06:05:00.204Z,30
2017-05-07T06:06:09.885Z,30
2017-05-07T06:07:19.055Z,30
2017-05-07T06:08:29.369Z,30
2017-05-07T06:09:38.528Z,30
2017-05-07T06:10:48.294Z,30
2017-05-07T06:11:58.119Z,25
2017-05-07T06:13:07.142Z,30
2017-05-07T06:14:17.245Z,25
2017-05-07T06:15:26.202Z,20
2017-05-07T06:16:36.224Z,20
2017-05-07T06:17:45.328Z,20
2017-05-07T06:18:55.460Z,20
2017-05-07T06:20:05.561Z,25
2017-05-07T06:21:16.178Z,25
2017-05-07T06:22:26.555Z,20
2017-05-07T06:23:35.626Z,20
2017-05-07T06:24:45.353Z,20
2017-05-07T06:25:54.581Z,25
2017-05-07T06:27:03.864Z,20
2017-05-07T06:28:13.085Z,20
2017-05-07T06:29:22.920Z,25
2017-05-07T06:30:31.878Z,25
2017-05-07T06:31:41.286Z,30
2017-05-07T06:32:50.619Z,30
2017-05-07T06:34:00.693Z,25
2017-05-07T06:35:11.139Z,20
2017-05-07T06:36:21.301Z,20
2017-05-07T06:37:30.308Z,15
2017-05-07T06:38:41.579Z,20
2017-05-07T06:39:50.782Z,25
2017-05-07T06:41:00.255Z,30
2017-05-07T06:42:09.790Z,35
2017-05-07T06:43:20.350Z,40
2017-05-07T06:44:30.545Z,45
2017-05-07T06:45:42.962Z,50
2017-05-07T06:46:51.920Z,40
2017-05-07T06:48:01.827Z,55
2017-05-07T06:49:10.783Z,75
2017-05-07T06:50:20.679Z,75
2017-05-07T06:51:31.195Z,70
2017-05-07T06:52:41.710Z,85
2017-05-07T06:53:51.129Z,120
2017-05-07T06:55:00.686Z,125
2017-05-07T06:56:09.651Z,125
2017-05-07T06:57:18.858Z,120
2017-05-07T06:58:27.817Z,90
2017-05-07T06:59:36.775Z,70
2017-05-07T07:00:46.052Z,65
2017-05-07T07:01:55.009Z,55
2017-05-07T07:03:04.215Z,60
2017-05-07T07:04:13.171Z,50
2017-05-07T07:05:22.128Z,45
2017-05-07T07:06:31.083Z,40
2017-05-07T07:07:40.124Z,40
2017-05-07T07:08:49.334Z,35
2017-05-07T07:09:58.292Z,40
2017-05-07T07:11:07.757Z,45
2017-05-07T07:12:16.808Z,45
2017-05-07T07:13:26.204Z,45
2017-05-07T07:14:35.411Z,50
2017-05-07T07:15:44.370Z,60
2017-05-07T07:16:53.328Z,55
2017-05-07T07:18:02.285Z,50
2017-05-07T07:19:11.242Z,55
2017-05-07T07:20:20.550Z,50
2017-05-07T07:21:29.511Z,50
2017-05-07T07:22:38.473Z,50
2017-05-07T07:23:48.893Z,55
2017-05-07T07:24:58.173Z,60
2017-05-07T07:26:07.905Z,65
2017-05-07T07:27:17.415Z,65
2017-05-07T07:28:26.373Z,60
2017-05-07T07:29:35.339Z,55
2017-05-07T07:30:44.298Z,55
2017-05-07T07:31:53.505Z,65
2017-05-07T07:33:02.461Z,70
2017-05-07T07:34:11.421Z,60
2017-05-07T07:35:20.506Z,50
2017-05-07T07:36:29.465Z,50
2017-05-07T07:37:38.678Z,50
2017-05-07T07:38:47.645Z,50
2017-05-07T07:39:56.610Z,65
2017-05-07T07:41:05.900Z,90
2017-05-07T07:42:14.862Z,135
2017-05-07T07:43:24.150Z,175
2017-05-07T07:44:33.289Z,170
2017-05-07T07:45:42.241Z,155
2017-05-07T07:46:51.286Z,120
2017-05-07T07:48:00.238Z,95
2017-05-07T07:49:09.497Z,90
2017-05-07T07:50:18.451Z,105
2017-05-07T07:51:27.442Z,130
2017-05-07T07:52:37.060Z,125
2017-05-07T07:53:46.101Z,110
2017-05-07T07:54:55.418Z,105
2017-05-07T07:56:04.411Z,95
2017-05-07T07:57:13.367Z,80
2017-05-07T07:58:22.444Z,75
2017-05-07T07:59:31.498Z,85
2017-05-07T08:00:40.822Z,105
2017-05-07T08:01:49.908Z,115
2017-05-07T08:02:58.868Z,130
2017-05-07T08:04:07.864Z,140
2017-05-07T08:05:16.873Z,145
2017-05-07T08:06:26.262Z,145
2017-05-07T08:07:35.486Z,130
2017-05-07T08:08:44.666Z,135
2017-05-07T08:09:53.766Z,135
2017-05-07T08:11:02.882Z,115
2017-05-07T08:12:12.286Z,120
2017-05-07T08:13:21.281Z,135
2017-05-07T08:14:30.871Z,140
2017-05-07T08:15:39.861Z,150
2017-05-07T08:16:48.817Z,130
2017-05-07T08:17:58.022Z,125
2017-05-07T08:19:07.003Z,120
2017-05-07T08:20:15.989Z,120
2017-05-07T08:21:24.966Z,125
2017-05-07T08:22:33.952Z,125
2017-05-07T08:23:43.186Z,130
2017-05-07T08:24:52.251Z,130
2017-05-07T08:26:01.233Z,130
2017-05-07T08:27:10.214Z,135
2017-05-07T08:28:19.199Z,130
2017-05-07T08:29:28.577Z,130
2017-05-07T08:30:37.566Z,120
2017-05-07T08:31:46.546Z,105
2017-05-07T08:32:55.533Z,105
2017-05-07T08:34:04.521Z,105
2017-05-07T08:35:13.755Z,125
2017-05-07T08:36:22.767Z,145
2017-05-07T08:37:31.791Z,180
2017-05-07T08:38:40.778Z,165
2017-05-07T08:39:49.765Z,150
2017-05-07T08:40:59.050Z,145
2017-05-07T08:42:08.033Z,150
2017-05-07T08:43:17.025Z,150
2017-05-07T08:44:26.134Z,155
2017-05-07T08:45:35.119Z,180
2017-05-07T08:46:44.446Z,180
2017-05-07T08:47:53.424Z,180
2017-05-07T08:49:02.406Z,190
2017-05-07T08:50:11.395Z,195
2017-05-07T08:51:20.468Z,185
2017-05-07T08:52:29.711Z,185
2017-05-07T08:53:38.696Z,180
2017-05-07T08:54:47.858Z,170
2017-05-07T08:55:57.094Z,170
2017-05-07T08:57:06.311Z,160
2017-05-07T08:58:15.699Z,155
2017-05-07T08:59:24.709Z,150
2017-05-07T09:00:33.771Z,150
2017-05-07T09:01:42.907Z,150
2017-05-07T09:02:51.972Z,155
2017-05-07T09:04:01.246Z,155
2017-05-07T09:05:10.379Z,145
2017-05-07T09:06:19.342Z,130
2017-05-07T09:07:28.303Z,120
2017-05-07T09:08:37.258Z,105
2017-05-07T09:09:46.655Z,95
2017-05-07T09:10:56.347Z,90
2017-05-07T09:12:05.771Z,90
2017-05-07T09:13:14.775Z,90
2017-05-07T09:14:23.731Z,95
2017-05-07T09:15:33.447Z,95
2017-05-07T09:16:42.936Z,100
2017-05-07T09:17:52.186Z,105
2017-05-07T09:19:01.292Z,110
2017-05-07T09:20:10.355Z,115
2017-05-07T09:21:19.847Z,120
2017-05-07T09:22:28.945Z,125
2017-05-07T09:23:37.966Z,130
2017-05-07T09:24:46.971Z,135
2017-05-07T09:25:56.183Z,145
2017-05-07T09:27:05.576Z,140
2017-05-07T09:28:14.644Z,150
2017-05-07T09:29:23.696Z,165
2017-05-07T09:30:32.817Z,175
2017-05-07T09:31:41.871Z,185
2017-05-07T09:32:51.244Z,180
2017-05-07T09:34:00.234Z,185
2017-05-07T09:35:09.433Z,185
2017-05-07T09:36:18.565Z,180
2017-05-07T09:37:27.557Z,190
2017-05-07T09:38:36.821Z,205
2017-05-07T09:39:45.775Z,205
2017-05-07T09:40:54.730Z,205
2017-05-07T09:42:03.689Z,195
2017-05-07T09:43:12.743Z,185
2017-05-07T09:44:22.002Z,180
2017-05-07T09:45:31.053Z,185
2017-05-07T09:46:40.026Z,190
2017-05-07T09:47:49.006Z,185
2017-05-07T09:48:57.968Z,180
2017-05-07T09:50:07.252Z,180
2017-05-07T09:51:16.207Z,180
2017-05-07T09:52:25.168Z,180
2017-05-07T09:53:34.128Z,175
2017-05-07T09:54:43.085Z,165
2017-05-07T09:55:52.357Z,155
2017-05-07T09:57:01.315Z,150
2017-05-07T09:58:10.280Z,155
2017-05-07T09:59:19.245Z,150
2017-05-07T10:00:28.206Z,150
2017-05-07T10:01:37.474Z,150
2017-05-07T10:02:46.459Z,145
2017-05-07T10:03:55.757Z,145
2017-05-07T10:05:04.719Z,150
2017-05-07T10:06:13.686Z,170
2017-05-07T10:07:23.034Z,165
2017-05-07T10:08:32.079Z,170
2017-05-07T10:09:41.128Z,180
2017-05-07T10:10:50.095Z,205
2017-05-07T10:11:59.056Z,215
2017-05-07T10:13:08.403Z,220
2017-05-07T10:14:17.359Z,220
2017-05-07T10:15:26.325Z,205
2017-05-07T10:16:35.611Z,175
2017-05-07T10:17:44.574Z,200
2017-05-07T10:18:53.841Z,180
2017-05-07T10:20:02.803Z,220
2017-05-07T10:21:11.774Z,225
2017-05-07T10:22:20.822Z,200
2017-05-07T10:23:29.784Z,205
2017-05-07T10:24:39.049Z,210
2017-05-07T10:25:48.005Z,195
2017-05-07T10:26:57.000Z,190
2017-05-07T10:28:06.992Z,185
2017-05-07T10:29:15.952Z,150
2017-05-07T10:30:25.215Z,160
2017-05-07T10:31:34.263Z,160
2017-05-07T10:32:43.228Z,160
2017-05-07T10:33:52.194Z,150
2017-05-07T10:35:01.242Z,180
2017-05-07T10:36:10.459Z,170
2017-05-07T10:37:19.416Z,165
2017-05-07T10:38:28.381Z,155
2017-05-07T10:39:37.334Z,140
2017-05-07T10:40:46.298Z,110
2017-05-07T10:41:55.601Z,110
2017-05-07T10:43:04.650Z,140
2017-05-07T10:44:13.937Z,150
2017-05-07T10:45:23.217Z,160
2017-05-07T10:46:32.206Z,150
2017-05-07T10:47:41.469Z,180
2017-05-07T10:48:50.436Z,185
2017-05-07T10:49:59.398Z,195
2017-05-07T10:51:08.447Z,190
2017-05-07T10:52:17.420Z,205
2017-05-07T10:53:28.774Z,190
2017-05-07T10:54:37.741Z,155
2017-05-07T10:55:46.729Z,150
2017-05-07T10:56:55.689Z,150
2017-05-07T10:58:04.650Z,155
2017-05-07T10:59:13.910Z,150
2017-05-07T11:00:22.952Z,155
2017-05-07T11:01:31.910Z,160
2017-05-07T11:02:40.870Z,150
2017-05-07T11:03:50.157Z,160
2017-05-07T11:04:59.415Z,170
2017-05-07T11:06:08.698Z,175
2017-05-07T11:07:17.661Z,165
2017-05-07T11:08:26.628Z,160
2017-05-07T11:09:35.587Z,175
2017-05-07T11:10:44.852Z,165
2017-05-07T11:11:53.813Z,165
2017-05-07T11:13:02.769Z,155
2017-05-07T11:14:12.057Z,140
2017-05-07T11:15:21.020Z,145
2017-05-07T11:16:30.287Z,125
2017-05-07T11:17:39.251Z,150
2017-05-07T11:18:48.214Z,140
2017-05-07T11:19:57.174Z,150
2017-05-07T11:21:06.135Z,135
2017-05-07T11:22:15.408Z,125
2017-05-07T11:23:24.371Z,125
2017-05-07T11:24:33.337Z,135
2017-05-07T11:25:42.303Z,125
2017-05-07T11:26:51.271Z,130
2017-05-07T11:28:00.546Z,125
2017-05-07T11:29:09.597Z,120
2017-05-07T11:30:18.878Z,120
2017-05-07T11:31:27.840Z,120
2017-05-07T11:32:36.804Z,130
2017-05-07T11:33:46.065Z,120
2017-05-07T11:34:55.024Z,125
2017-05-07T11:36:04.445Z,130
2017-05-07T11:37:13.507Z,130
2017-05-07T11:38:22.580Z,130
2017-05-07T11:39:32.327Z,130
2017-05-07T11:40:41.649Z,125
2017-05-07T11:41:50.765Z,135
2017-05-07T11:42:59.934Z,155
2017-05-07T11:44:08.906Z,160
2017-05-07T11:45:18.264Z,160
2017-05-07T11:46:27.288Z,150
2017-05-07T11:47:36.367Z,135
2017-05-07T11:48:45.355Z,110
2017-05-07T11:49:54.355Z,135
2017-05-07T11:51:03.839Z,130
2017-05-07T11:52:12.979Z,130
2017-05-07T11:53:21.942Z,115
2017-05-07T11:54:30.909Z,120
2017-05-07T11:55:40.055Z,135
2017-05-07T11:56:49.445Z,145
2017-05-07T11:57:58.514Z,150
2017-05-07T11:59:07.533Z,135
2017-05-07T12:00:16.547Z,130
2017-05-07T12:01:25.640Z,135
2017-05-07T12:02:35.190Z,110
2017-05-07T12:03:44.325Z,120
2017-05-07T12:04:53.448Z,115
2017-05-07T12:06:02.410Z,120
2017-05-07T12:07:11.372Z,130
2017-05-07T12:08:20.614Z,110
2017-05-07T12:09:29.629Z,135
2017-05-07T12:10:38.612Z,125
2017-05-07T12:11:47.600Z,110
2017-05-07T12:12:56.593Z,115
2017-05-07T12:14:05.830Z,95
2017-05-07T12:15:14.818Z,80
2017-05-07T12:16:23.803Z,80
2017-05-07T12:17:32.789Z,85
2017-05-07T12:18:41.776Z,95
2017-05-07T12:19:51.064Z,100
2017-05-07T12:21:00.051Z,115
2017-05-07T12:22:09.035Z,130
2017-05-07T12:23:18.028Z,130
2017-05-07T12:24:27.008Z,130
2017-05-07T12:25:36.301Z,110
2017-05-07T12:26:45.288Z,100
2017-05-07T12:27:54.272Z,95
2017-05-07T12:29:03.253Z,100
2017-05-07T12:30:12.242Z,105
2017-05-07T12:31:21.529Z,105
2017-05-07T12:32:30.523Z,110
2017-05-07T12:33:39.610Z,110
2017-05-07T12:34:48.794Z,90
2017-05-07T12:35:57.779Z,65
2017-05-07T12:37:07.075Z,60
2017-05-07T12:38:16.393Z,80
2017-05-07T12:39:25.379Z,90
2017-05-07T12:40:34.370Z,90
2017-05-07T12:41:43.439Z,85
2017-05-07T12:42:52.722Z,85
2017-05-07T12:44:01.683Z,85
2017-05-07T12:45:10.734Z,80
2017-05-07T12:46:20.093Z,80
2017-05-07T12:47:29.511Z,85
2017-05-07T12:48:38.819Z,80
2017-05-07T12:49:47.811Z,85
2017-05-07T12:50:56.967Z,60
2017-05-07T12:52:06.042Z,50
2017-05-07T12:53:15.025Z,45
2017-05-07T12:54:24.336Z,80
2017-05-07T12:55:33.318Z,70
2017-05-07T12:56:42.317Z,80
2017-05-07T12:57:51.304Z,70
2017-05-07T12:59:00.293Z,55
2017-05-07T13:00:09.910Z,55
2017-05-07T13:01:18.873Z,55
2017-05-07T13:02:27.936Z,55
2017-05-07T13:03:37.028Z,75
2017-05-07T13:04:46.352Z,55
2017-05-07T13:06:02.072Z,80
2017-05-07T13:07:11.879Z,80
2017-05-07T13:08:20.924Z,80
2017-05-07T13:09:29.883Z,80
2017-05-07T13:10:38.844Z,80
2017-05-07T13:11:48.105Z,80
2017-05-07T13:12:57.185Z,80
2017-05-07T13:14:06.238Z,80
2017-05-07T13:15:15.212Z,85
2017-05-07T13:16:24.181Z,85
2017-05-07T13:17:33.448Z,85
2017-05-07T13:18:42.421Z,85
2017-05-07T13:19:51.385Z,85
2017-05-07T13:21:00.347Z,85
2017-05-07T13:22:09.305Z,85
2017-05-07T13:23:18.564Z,85
2017-05-07T13:24:27.530Z,85
2017-05-07T13:25:36.509Z,85
2017-05-07T13:26:45.796Z,85
2017-05-07T13:27:55.080Z,85
2017-05-07T13:29:04.347Z,85
2017-05-07T13:30:13.317Z,85
2017-05-07T13:31:22.279Z,85
2017-05-07T13:32:31.245Z,85
2017-05-07T13:33:40.308Z,85
2017-05-07T13:34:49.521Z,85
2017-05-07T13:35:58.488Z,85
2017-05-07T13:37:07.779Z,85
2017-05-07T13:38:16.741Z,85
2017-05-07T13:39:25.704Z,85
2017-05-07T13:40:34.961Z,85
2017-05-07T13:41:43.927Z,85
2017-05-07T13:42:52.894Z,85
2017-05-07T13:44:01.861Z,85
2017-05-07T13:45:10.915Z,85
2017-05-07T13:46:20.182Z,85
2017-05-07T13:47:29.145Z,85
2017-05-07T13:48:38.130Z,85
2017-05-07T13:49:47.096Z,85
2017-05-07T13:50:56.059Z,85
2017-05-07T13:52:05.325Z,85
2017-05-07T13:53:14.286Z,85
2017-05-07T13:54:23.250Z,85
2017-05-07T13:55:32.210Z,85
2017-05-07T13:56:41.172Z,85
2017-05-07T13:57:50.527Z,85
2017-05-07T13:58:59.491Z,85
2017-05-07T14:00:08.455Z,85
2017-05-07T14:01:17.417Z,85
2017-05-07T14:02:26.401Z,85
2017-05-07T14:03:35.747Z,85
2017-05-07T14:04:44.709Z,80
2017-05-07T14:05:53.673Z,80
2017-05-07T14:07:02.634Z,80
2017-05-07T14:08:11.601Z,80
2017-05-07T14:09:20.871Z,70
2017-05-07T14:10:29.831Z,80
2017-05-07T14:11:38.967Z,80
2017-05-07T14:12:47.927Z,80
2017-05-07T14:13:57.431Z,80
2017-05-07T14:15:13.622Z,80
2017-05-07T14:16:23.288Z,80
2017-05-07T14:17:32.570Z,80
2017-05-07T14:18:41.781Z,80
2017-05-07T14:19:50.969Z,80
2017-05-07T14:21:01.018Z,80
2017-05-07T14:22:10.167Z,80
2017-05-07T14:23:19.139Z,75
2017-05-07T14:24:28.103Z,75
2017-05-07T14:25:37.157Z,80
2017-05-07T14:26:46.369Z,75
2017-05-07T14:27:55.332Z,75
2017-05-07T14:29:04.301Z,75
2017-05-07T14:30:13.267Z,75
2017-05-07T14:31:22.231Z,75
2017-05-07T14:32:31.497Z,75
2017-05-07T14:33:40.461Z,75
2017-05-07T14:34:49.512Z,75
2017-05-07T14:35:58.560Z,75
2017-05-07T14:37:07.609Z,75
2017-05-07T14:38:16.868Z,75
2017-05-07T14:39:25.826Z,75
2017-05-07T14:40:34.788Z,75
2017-05-07T14:41:43.757Z,70
2017-05-07T14:42:52.718Z,75
2017-05-07T14:44:01.977Z,75
2017-05-07T14:45:10.941Z,75
2017-05-07T14:46:19.900Z,70
2017-05-07T14:47:28.860Z,70
2017-05-07T14:48:37.831Z,70
2017-05-07T14:49:47.097Z,70
2017-05-07T14:50:56.060Z,70
2017-05-07T14:52:05.024Z,70
2017-05-07T14:53:13.997Z,70
2017-05-07T14:54:22.959Z,70
2017-05-07T14:55:32.553Z,70
2017-05-07T14:56:41.606Z,70
2017-05-07T14:57:50.575Z,65
2017-05-07T14:58:59.536Z,65
2017-05-07T15:00:08.494Z,65
2017-05-07T15:01:17.709Z,65
2017-05-07T15:02:26.675Z,65
2017-05-07T15:03:35.642Z,65
2017-05-07T15:04:44.611Z,65
2017-05-07T15:05:53.579Z,65
2017-05-07T15:07:02.846Z,65
2017-05-07T15:08:11.812Z,65
2017-05-07T15:09:20.783Z,65
2017-05-07T15:10:29.831Z,65
2017-05-07T15:11:38.796Z,65
2017-05-07T15:12:48.062Z,65
2017-05-07T15:13:57.020Z,60
2017-05-07T15:15:05.982Z,60
2017-05-07T15:16:14.941Z,60
2017-05-07T15:17:23.989Z,60
2017-05-07T15:18:33.346Z,60
2017-05-07T15:19:42.315Z,60
2017-05-07T15:20:51.278Z,60
2017-05-07T15:22:00.322Z,60
2017-05-07T15:23:09.289Z,60
2017-05-07T15:24:18.637Z,55
2017-05-07T15:25:27.605Z,55
2017-05-07T15:26:36.690Z,55
2017-05-07T15:27:45.650Z,55
2017-05-07T15:28:54.632Z,55
2017-05-07T15:30:03.917Z,55
2017-05-07T15:31:13.076Z,55
2017-05-07T15:32:22.822Z,55
2017-05-07T15:33:32.356Z,55
2017-05-07T15:34:41.532Z,55
2017-05-07T15:35:50.814Z,55
2017-05-07T15:36:59.780Z,55
2017-05-07T15:38:09.104Z,55
2017-05-07T15:39:18.452Z,55
2017-05-07T15:40:27.453Z,55
2017-05-07T15:41:36.717Z,55
2017-05-07T15:42:45.708Z,50
2017-05-07T15:43:54.702Z,50
2017-05-07T15:45:03.776Z,50
2017-05-07T15:46:12.848Z,50
2017-05-07T15:47:22.080Z,50
2017-05-07T15:48:31.075Z,50
2017-05-07T15:49:40.054Z,50
2017-05-07T15:50:49.038Z,50
2017-05-07T15:51:58.024Z,50
2017-05-07T15:53:07.305Z,50
2017-05-07T15:54:16.289Z,50
2017-05-07T15:55:25.275Z,50
2017-05-07T15:56:34.263Z,50
2017-05-07T15:57:43.246Z,45
2017-05-07T15:58:52.532Z,50
2017-05-07T16:00:01.516Z,45
2017-05-07T16:01:10.503Z,45
2017-05-07T16:02:19.502Z,45
2017-05-07T16:03:28.496Z,45
2017-05-07T16:04:37.854Z,45
2017-05-07T16:05:47.192Z,50
2017-05-07T16:06:56.186Z,45
2017-05-07T16:08:05.174Z,45
2017-05-07T16:09:14.167Z,45
2017-05-07T16:10:23.458Z,45
2017-05-07T16:11:32.444Z,45
2017-05-07T16:12:41.425Z,45
2017-05-07T16:13:50.420Z,40
2017-05-07T16:14:59.491Z,45
2017-05-07T16:16:08.778Z,45
2017-05-07T16:17:17.771Z,45
2017-05-07T16:18:26.754Z,45
2017-05-07T16:19:35.747Z,45
2017-05-07T16:20:44.736Z,45
2017-05-07T16:21:53.971Z,45
2017-05-07T16:23:02.941Z,45
2017-05-07T16:24:12.241Z,45
2017-05-07T16:25:21.444Z,45
2017-05-07T16:26:30.445Z,45
2017-05-07T16:27:39.772Z,45